createdAt,value
2023-03-02T00:02:10.824Z,55.50
2023-03-02T00:04:46.234Z,55.50
2023-03-02T00:07:36.302Z,55.50
2023-03-02T00:10:05.957Z,55.60
2023-03-02T00:12:34.965Z,55.70
2023-03-02T00:15:02.667Z,55.70
2023-03-02T00:17:31.546Z,55.80
2023-03-02T00:20:11.957Z,55.90
2023-03-02T00:22:44.449Z,55.80
2023-03-02T00:25:14.998Z,55.80
2023-03-02T00:27:45.941Z,55.80
2023-03-02T00:30:14.954Z,55.90
2023-03-02T00:32:43.421Z,55.90
2023-03-02T00:35:11.549Z,56.10
2023-03-02T00:37:41.151Z,56.10
2023-03-02T00:40:11.047Z,56.20
2023-03-02T00:42:40.430Z,56.20
2023-03-02T00:45:08.755Z,56.20
2023-03-02T00:47:37.679Z,56.20
2023-03-02T00:50:07.439Z,56.20
2023-03-02T00:52:36.565Z,56.10
2023-03-02T00:55:04.627Z,56.00
2023-03-02T00:57:33.553Z,56.00
2023-03-02T01:00:01.963Z,56.10
2023-03-02T01:02:35.087Z,56.10
2023-03-02T01:05:03.046Z,56.10
2023-03-02T01:07:31.992Z,56.20
2023-03-02T01:10:00.144Z,56.20
2023-03-02T01:12:28.360Z,56.30
2023-03-02T01:14:56.180Z,56.40
2023-03-02T01:17:26.618Z,56.30
2023-03-02T01:19:55.254Z,56.30
2023-03-02T01:22:23.775Z,56.40
2023-03-02T01:24:52.240Z,56.50
2023-03-02T01:27:21.107Z,56.50
2023-03-02T01:29:51.065Z,56.40
2023-03-02T01:32:19.243Z,56.40
2023-03-02T01:34:49.290Z,56.40
2023-03-02T01:37:21.140Z,56.50
2023-03-02T01:39:49.554Z,56.60
2023-03-02T01:42:18.342Z,56.50
2023-03-02T01:44:54.577Z,56.50
2023-03-02T01:47:31.808Z,56.50
2023-03-02T01:50:26.758Z,56.60
2023-03-02T01:52:58.862Z,56.80
2023-03-02T01:55:33.239Z,56.80
2023-03-02T01:58:02.913Z,56.90
2023-03-02T02:00:37.081Z,56.90
2023-03-02T02:03:21.479Z,56.90
2023-03-02T02:06:18.483Z,56.90
2023-03-02T02:08:46.901Z,56.90
2023-03-02T02:11:14.725Z,57.00
2023-03-02T02:13:44.654Z,57.00
2023-03-02T02:16:12.684Z,57.00
2023-03-02T02:18:42.005Z,57.10
2023-03-02T02:21:10.419Z,57.20
2023-03-02T02:24:16.953Z,57.20
2023-03-02T02:26:50.320Z,57.30
2023-03-02T02:29:34.469Z,57.30
2023-03-02T02:32:07.133Z,57.30
2023-03-02T02:34:44.256Z,57.40
2023-03-02T02:37:26.579Z,57.20
2023-03-02T02:39:59.185Z,57.30
2023-03-02T02:42:36.456Z,57.40
2023-03-02T02:45:18.280Z,57.30
2023-03-02T02:47:46.968Z,57.20
2023-03-02T02:50:24.354Z,57.30
2023-03-02T02:53:01.273Z,57.40
2023-03-02T02:55:31.801Z,57.50
2023-03-02T02:58:10.458Z,57.60
2023-03-02T03:00:38.948Z,57.60
2023-03-02T03:03:29.671Z,57.60
2023-03-02T03:06:06.078Z,57.40
2023-03-02T03:09:06.205Z,57.40
2023-03-02T03:11:59.198Z,57.30
2023-03-02T03:14:34.947Z,57.30
2023-03-02T03:17:03.120Z,57.30
2023-03-02T03:19:32.387Z,57.40
2023-03-02T03:22:02.796Z,57.50
2023-03-02T03:24:36.165Z,57.50
2023-03-02T03:27:07.330Z,57.60
2023-03-02T03:29:41.182Z,57.60
2023-03-02T03:32:11.568Z,57.50
2023-03-02T03:34:43.854Z,57.50
2023-03-02T03:37:20.225Z,57.50
2023-03-02T03:39:51.083Z,57.60
2023-03-02T03:42:19.969Z,57.70
2023-03-02T03:44:48.041Z,57.80
2023-03-02T03:47:16.412Z,57.90
2023-03-02T03:49:44.677Z,57.90
2023-03-02T03:52:13.125Z,57.90
2023-03-02T03:54:40.939Z,57.90
2023-03-02T03:57:12.401Z,58.00
2023-03-02T03:59:40.819Z,58.00
2023-03-02T04:02:09.466Z,58.10
2023-03-02T04:04:41.717Z,58.00
2023-03-02T04:07:15.961Z,58.10
2023-03-02T04:09:46.370Z,58.20
2023-03-02T04:12:16.124Z,58.20
2023-03-02T04:14:49.383Z,58.20
2023-03-02T04:17:17.384Z,58.30
2023-03-02T04:19:48.370Z,58.30
2023-03-02T04:22:17.328Z,58.30
2023-03-02T04:24:45.188Z,58.40
2023-03-02T04:27:13.754Z,58.40
2023-03-02T04:29:44.184Z,58.40
2023-03-02T04:32:16.254Z,58.40
2023-03-02T04:34:51.468Z,58.50
2023-03-02T04:37:19.928Z,58.50
2023-03-02T04:39:51.930Z,58.50
2023-03-02T04:42:22.292Z,58.60
2023-03-02T04:44:50.496Z,58.70
2023-03-02T04:47:21.173Z,58.70
2023-03-02T04:49:54.932Z,58.70
2023-03-02T04:52:23.498Z,58.80
2023-03-02T04:54:53.493Z,58.90
2023-03-02T04:57:21.518Z,58.90
2023-03-02T04:59:50.351Z,58.80
2023-03-02T05:02:18.779Z,58.70
2023-03-02T05:04:49.081Z,58.80
2023-03-02T05:07:19.497Z,58.90
2023-03-02T05:09:47.408Z,58.80
2023-03-02T05:12:15.832Z,58.70
2023-03-02T05:14:45.459Z,58.60
2023-03-02T05:17:14.520Z,58.60
2023-03-02T05:19:42.330Z,58.80
2023-03-02T05:22:10.932Z,59.10
2023-03-02T05:24:38.878Z,59.40
2023-03-02T05:27:07.482Z,60.00
2023-03-02T05:29:37.380Z,60.60
2023-03-02T05:32:05.735Z,60.80
2023-03-02T05:34:33.575Z,60.90
2023-03-02T05:37:02.903Z,60.90
2023-03-02T05:39:30.989Z,60.90
2023-03-02T05:41:59.119Z,61.00
2023-03-02T05:44:27.051Z,61.10
2023-03-02T05:46:55.485Z,61.10
2023-03-02T05:49:23.821Z,61.10
2023-03-02T05:51:51.974Z,61.00
2023-03-02T05:54:19.723Z,61.00
2023-03-02T05:56:51.183Z,61.10
2023-03-02T05:59:18.832Z,61.10
2023-03-02T06:01:48.970Z,61.20
2023-03-02T06:04:17.218Z,61.20
2023-03-02T06:06:45.866Z,61.20
2023-03-02T06:09:13.706Z,61.10
2023-03-02T06:11:44.321Z,60.90
2023-03-02T06:14:12.032Z,61.00
2023-03-02T06:16:40.322Z,61.00
2023-03-02T06:19:08.208Z,61.10
2023-03-02T06:21:36.414Z,61.00
2023-03-02T06:24:04.383Z,61.00
2023-03-02T06:26:33.319Z,61.10
2023-03-02T06:29:02.002Z,61.20
2023-03-02T06:31:31.394Z,61.20
2023-03-02T06:33:59.052Z,61.20
2023-03-02T06:36:29.082Z,61.10
2023-03-02T06:38:57.838Z,60.90
2023-03-02T06:41:26.584Z,61.00
2023-03-02T06:43:54.590Z,61.30
2023-03-02T06:46:24.224Z,61.60
2023-03-02T06:48:53.077Z,61.70
2023-03-02T06:51:21.439Z,61.70
2023-03-02T06:53:49.222Z,61.70
2023-03-02T06:56:17.314Z,61.60
2023-03-02T06:58:45.046Z,61.40
2023-03-02T07:01:13.266Z,61.30
2023-03-02T07:03:41.249Z,61.30
2023-03-02T07:06:13.402Z,61.40
2023-03-02T07:08:41.673Z,61.50
2023-03-02T07:11:12.966Z,61.60
2023-03-02T07:13:41.088Z,62.10
2023-03-02T07:16:14.742Z,63.80
2023-03-02T07:18:42.918Z,65.20
2023-03-02T07:21:10.861Z,65.40
2023-03-02T07:23:38.739Z,65.10
2023-03-02T07:26:08.775Z,64.50
2023-03-02T07:28:43.791Z,64.40
2023-03-02T07:31:12.950Z,64.10
2023-03-02T07:33:41.305Z,63.10
2023-03-02T07:36:10.600Z,61.90
2023-03-02T07:38:38.950Z,62.00
2023-03-02T07:41:09.184Z,62.20
2023-03-02T07:43:37.451Z,62.20
2023-03-02T07:46:07.718Z,61.70
2023-03-02T07:48:36.891Z,61.30
2023-03-02T07:51:06.848Z,61.10
2023-03-02T07:53:34.837Z,60.90
2023-03-02T07:56:08.259Z,59.80
2023-03-02T07:58:36.176Z,59.80
2023-03-02T08:01:05.293Z,59.50
2023-03-02T08:03:33.876Z,57.60
2023-03-02T08:06:13.786Z,56.80
2023-03-02T08:08:41.751Z,56.30
2023-03-02T08:11:14.577Z,56.50
2023-03-02T08:13:42.880Z,56.40
2023-03-02T08:16:14.278Z,56.80
2023-03-02T08:18:42.166Z,55.40
2023-03-02T08:21:15.991Z,54.70
2023-03-02T08:23:44.242Z,55.20
2023-03-02T08:26:17.479Z,54.10
2023-03-02T08:28:46.155Z,53.40
2023-03-02T08:31:15.105Z,52.30
2023-03-02T08:33:43.002Z,52.40
2023-03-02T08:36:17.630Z,52.20
2023-03-02T08:38:46.912Z,51.40
2023-03-02T08:41:22.022Z,50.70
2023-03-02T08:43:51.107Z,50.20
2023-03-02T08:46:19.581Z,49.30
2023-03-02T08:48:53.978Z,49.20
2023-03-02T08:51:34.919Z,49.40
2023-03-02T08:54:04.302Z,47.80
2023-03-02T08:56:36.149Z,46.50
2023-03-02T08:59:12.212Z,46.40
2023-03-02T09:01:42.400Z,47.30
2023-03-02T09:04:12.929Z,47.70
2023-03-02T09:06:43.752Z,47.20
2023-03-02T09:09:15.114Z,46.80
2023-03-02T09:11:45.042Z,45.30
2023-03-02T09:14:13.985Z,45.30
2023-03-02T09:16:43.021Z,45.50
2023-03-02T09:19:13.102Z,44.80
2023-03-02T09:21:41.673Z,44.80
2023-03-02T09:24:11.481Z,45.00
2023-03-02T09:26:40.034Z,43.90
2023-03-02T09:29:08.370Z,44.00
2023-03-02T09:31:38.290Z,42.90
2023-03-02T09:34:07.631Z,42.20
2023-03-02T09:36:38.395Z,41.60
2023-03-02T09:39:12.481Z,41.80
2023-03-02T09:41:53.046Z,41.10
2023-03-02T09:44:39.068Z,40.40
2023-03-02T09:47:44.810Z,40.90
2023-03-02T09:50:31.489Z,40.30
2023-03-02T09:53:21.683Z,39.40
2023-03-02T09:55:56.522Z,39.10
2023-03-02T09:58:40.737Z,39.50
2023-03-02T10:01:18.747Z,39.50
2023-03-02T10:03:58.338Z,38.70
2023-03-02T10:06:27.259Z,38.50
2023-03-02T10:08:56.525Z,38.40
2023-03-02T10:11:33.702Z,38.20
2023-03-02T10:14:09.268Z,38.20
2023-03-02T10:16:46.523Z,39.00
2023-03-02T10:19:55.302Z,38.80
2023-03-02T10:22:43.442Z,39.60
2023-03-02T10:25:42.970Z,38.20
2023-03-02T10:28:21.417Z,39.30
2023-03-02T10:31:09.059Z,39.20
2023-03-02T10:33:40.903Z,38.30
2023-03-02T10:36:20.990Z,37.80
2023-03-02T10:38:49.358Z,38.70
2023-03-02T10:41:23.910Z,36.90
2023-03-02T10:43:56.076Z,36.80
2023-03-02T10:46:25.596Z,36.80
2023-03-02T10:48:59.962Z,37.60
2023-03-02T10:51:38.005Z,37.20
2023-03-02T10:54:08.019Z,35.50
2023-03-02T10:56:38.034Z,36.40
2023-03-02T10:59:44.062Z,35.00
2023-03-02T11:02:15.097Z,34.90
2023-03-02T11:04:43.229Z,35.30
2023-03-02T11:07:21.851Z,35.10
2023-03-02T11:10:19.799Z,35.60
2023-03-02T11:12:51.489Z,34.70
2023-03-02T11:15:40.971Z,35.20
2023-03-02T11:18:29.206Z,35.70
2023-03-02T11:21:07.314Z,36.00
2023-03-02T11:23:39.703Z,35.40
2023-03-02T11:26:25.836Z,34.60
2023-03-02T11:28:59.946Z,34.90
2023-03-02T11:31:50.327Z,35.40
2023-03-02T11:34:29.719Z,35.70
2023-03-02T11:37:14.578Z,35.50
2023-03-02T11:39:54.917Z,35.80
2023-03-02T11:42:34.563Z,35.90
2023-03-02T11:45:18.986Z,35.20
2023-03-02T11:48:03.808Z,35.60
2023-03-02T11:50:47.022Z,34.80
2023-03-02T11:53:18.578Z,35.30
2023-03-02T11:55:50.021Z,35.40
2023-03-02T11:58:28.520Z,35.00
2023-03-02T12:00:57.290Z,35.60
2023-03-02T12:03:33.938Z,35.70
2023-03-02T12:06:05.919Z,34.40
2023-03-02T12:08:42.640Z,35.10
2023-03-02T12:11:20.018Z,34.80
2023-03-02T12:14:26.148Z,35.60
2023-03-02T12:17:19.633Z,35.40
2023-03-02T12:19:50.178Z,35.80
2023-03-02T12:22:30.603Z,35.60
2023-03-02T12:25:07.495Z,36.00
2023-03-02T12:27:40.076Z,35.90
2023-03-02T12:30:24.039Z,35.30
2023-03-02T12:33:10.558Z,36.00
2023-03-02T12:35:39.834Z,36.50
2023-03-02T12:38:31.285Z,36.00
2023-03-02T12:41:36.123Z,35.70
2023-03-02T12:44:39.882Z,35.90
2023-03-02T12:47:18.280Z,35.20
2023-03-02T12:49:57.012Z,35.00
2023-03-02T12:52:29.404Z,35.10
2023-03-02T12:55:10.317Z,35.50
2023-03-02T12:57:47.401Z,35.90
2023-03-02T13:00:22.835Z,35.70
2023-03-02T13:02:53.054Z,35.80
2023-03-02T13:05:30.621Z,36.00
2023-03-02T13:08:29.914Z,36.20
2023-03-02T13:11:02.246Z,36.00
2023-03-02T13:13:33.351Z,36.10
2023-03-02T13:16:06.582Z,36.40
2023-03-02T13:18:39.668Z,36.50
2023-03-02T13:21:13.749Z,36.60
2023-03-02T13:23:50.537Z,37.00
2023-03-02T13:26:36.031Z,37.30
2023-03-02T13:29:08.892Z,37.30
2023-03-02T13:31:38.663Z,37.20
2023-03-02T13:34:06.729Z,37.00
2023-03-02T13:36:38.884Z,37.30
2023-03-02T13:39:18.294Z,37.20
2023-03-02T13:41:55.891Z,37.40
2023-03-02T13:44:33.818Z,37.70
2023-03-02T13:47:02.936Z,37.80
2023-03-02T13:49:37.942Z,37.90
2023-03-02T13:52:17.353Z,38.10
2023-03-02T13:54:47.536Z,38.40
2023-03-02T13:57:25.990Z,38.60
2023-03-02T13:59:53.966Z,38.90
2023-03-02T14:02:29.910Z,38.90
2023-03-02T14:04:59.702Z,38.50
2023-03-02T14:07:28.128Z,38.80
2023-03-02T14:09:57.615Z,39.00
2023-03-02T14:12:35.219Z,39.30
2023-03-02T14:15:05.834Z,39.40
2023-03-02T14:17:35.330Z,39.40
2023-03-02T14:20:03.522Z,39.20
2023-03-02T14:22:32.832Z,39.40
2023-03-02T14:25:00.805Z,39.60
2023-03-02T14:27:31.959Z,39.80
2023-03-02T14:30:01.077Z,39.90
2023-03-02T14:32:29.691Z,39.90
2023-03-02T14:34:57.897Z,39.90
2023-03-02T14:37:29.243Z,40.00
2023-03-02T14:39:57.703Z,40.00
2023-03-02T14:42:26.024Z,40.10
2023-03-02T14:44:53.914Z,40.10
2023-03-02T14:47:22.955Z,40.10
2023-03-02T14:49:50.732Z,40.10
2023-03-02T14:52:27.170Z,40.10
2023-03-02T14:54:59.085Z,40.10
2023-03-02T14:57:30.014Z,40.20
2023-03-02T15:00:00.242Z,40.40
2023-03-02T15:02:32.622Z,40.50
2023-03-02T15:05:00.634Z,40.60
2023-03-02T15:07:29.827Z,40.60
2023-03-02T15:09:58.988Z,40.50
2023-03-02T15:12:27.497Z,40.30
2023-03-02T15:14:55.665Z,40.20
2023-03-02T15:17:23.848Z,40.20
2023-03-02T15:19:51.885Z,40.40
2023-03-02T15:22:20.421Z,40.40
2023-03-02T15:24:48.154Z,40.60
2023-03-02T15:27:16.520Z,40.70
2023-03-02T15:29:48.401Z,40.70
2023-03-02T15:32:17.085Z,40.80
2023-03-02T15:34:46.292Z,40.90
2023-03-02T15:37:15.105Z,40.90
2023-03-02T15:39:42.986Z,40.90
2023-03-02T15:42:13.717Z,41.00
2023-03-02T15:44:42.747Z,41.10
2023-03-02T15:47:12.615Z,41.10
2023-03-02T15:49:41.658Z,41.20
2023-03-02T15:52:11.502Z,41.20
2023-03-02T15:54:41.412Z,41.20
2023-03-02T15:57:10.509Z,41.30
2023-03-02T15:59:38.301Z,41.30
2023-03-02T16:02:07.851Z,41.50
2023-03-02T16:04:37.129Z,41.50
2023-03-02T16:07:05.390Z,41.60
2023-03-02T16:09:34.333Z,41.60
2023-03-02T16:12:02.635Z,41.70
2023-03-02T16:14:30.725Z,41.70
2023-03-02T16:17:01.549Z,41.90
2023-03-02T16:19:32.664Z,41.90
2023-03-02T16:22:01.081Z,42.00
2023-03-02T16:24:28.731Z,42.00
2023-03-02T16:26:59.268Z,42.10
2023-03-02T16:29:27.316Z,42.20
2023-03-02T16:31:56.011Z,42.20
2023-03-02T16:34:23.920Z,42.30
2023-03-02T16:36:52.730Z,42.30
2023-03-02T16:39:24.480Z,42.40
2023-03-02T16:41:54.225Z,42.40
2023-03-02T16:44:24.076Z,42.50
2023-03-02T16:46:52.902Z,42.50
2023-03-02T16:49:21.222Z,42.60
2023-03-02T16:51:57.333Z,42.70
2023-03-02T16:54:27.112Z,42.80
2023-03-02T16:56:55.964Z,42.70
2023-03-02T16:59:25.472Z,42.70
2023-03-02T17:01:55.383Z,42.70
2023-03-02T17:04:23.815Z,43.00
2023-03-02T17:07:02.400Z,43.40
2023-03-02T17:09:33.088Z,44.60
2023-03-02T17:12:02.284Z,44.50
2023-03-02T17:14:30.437Z,44.60
2023-03-02T17:16:59.178Z,45.00
2023-03-02T17:19:27.366Z,46.10
2023-03-02T17:22:04.467Z,46.90
2023-03-02T17:24:34.020Z,50.70
2023-03-02T17:27:10.699Z,51.10
2023-03-02T17:29:48.477Z,51.20
2023-03-02T17:32:20.652Z,50.90
2023-03-02T17:34:50.813Z,51.20
2023-03-02T17:37:21.360Z,51.60
2023-03-02T17:39:52.040Z,52.00
2023-03-02T17:42:21.234Z,52.30
2023-03-02T17:44:49.616Z,52.70
2023-03-02T17:47:22.228Z,53.20
2023-03-02T17:49:51.026Z,53.60
2023-03-02T17:52:23.915Z,53.60
2023-03-02T17:54:55.857Z,54.20
2023-03-02T17:57:28.917Z,54.60
2023-03-02T17:59:58.710Z,54.60
2023-03-02T18:02:29.151Z,54.70
2023-03-02T18:04:59.372Z,55.20
2023-03-02T18:07:30.389Z,57.10
2023-03-02T18:10:00.455Z,57.50
2023-03-02T18:12:29.690Z,57.70
2023-03-02T18:14:58.987Z,58.00
2023-03-02T18:17:28.112Z,58.40
2023-03-02T18:19:57.679Z,58.70
2023-03-02T18:22:26.563Z,58.80
2023-03-02T18:24:55.426Z,58.60
2023-03-02T18:27:26.519Z,58.50
2023-03-02T18:29:57.090Z,58.30
2023-03-02T18:32:26.933Z,58.40
2023-03-02T18:34:56.316Z,58.60
2023-03-02T18:37:28.188Z,59.00
2023-03-02T18:39:59.630Z,59.30
2023-03-02T18:42:31.190Z,59.90
2023-03-02T18:45:02.648Z,60.50
2023-03-02T18:47:40.566Z,61.10
2023-03-02T18:50:14.944Z,61.40
2023-03-02T18:52:46.672Z,61.80
2023-03-02T18:55:17.608Z,61.90
2023-03-02T18:57:48.141Z,62.00
2023-03-02T19:00:24.595Z,62.00
2023-03-02T19:02:59.326Z,62.50
2023-03-02T19:05:31.748Z,63.00
2023-03-02T19:08:05.019Z,63.70
2023-03-02T19:10:40.278Z,63.80
2023-03-02T19:13:14.136Z,63.50
2023-03-02T19:15:45.558Z,63.30
2023-03-02T19:18:24.138Z,62.70
2023-03-02T19:20:55.576Z,62.70
2023-03-02T19:23:29.124Z,63.20
2023-03-02T19:26:00.530Z,63.70
2023-03-02T19:28:30.845Z,64.10
2023-03-02T19:31:05.872Z,64.80
2023-03-02T19:33:39.162Z,65.10
2023-03-02T19:36:10.192Z,64.90
2023-03-02T19:38:43.718Z,64.60
2023-03-02T19:41:16.487Z,64.40
2023-03-02T19:43:48.289Z,64.20
2023-03-02T19:46:20.344Z,64.00
2023-03-02T19:48:50.368Z,64.60
2023-03-02T19:51:19.330Z,64.60
2023-03-02T19:53:51.282Z,64.70
2023-03-02T19:56:21.853Z,64.60
2023-03-02T19:58:55.091Z,64.70
2023-03-02T20:01:28.378Z,65.20
2023-03-02T20:04:00.880Z,65.50
2023-03-02T20:06:41.818Z,65.50
2023-03-02T20:09:20.206Z,65.40
2023-03-02T20:11:51.629Z,65.80
2023-03-02T20:14:33.298Z,66.00
2023-03-02T20:17:06.271Z,66.00
2023-03-02T20:19:41.753Z,65.80
2023-03-02T20:22:14.001Z,65.60
2023-03-02T20:24:44.805Z,65.50
2023-03-02T20:27:15.571Z,65.40
2023-03-02T20:29:46.392Z,65.90
2023-03-02T20:32:16.004Z,66.40
2023-03-02T20:34:54.195Z,66.60
2023-03-02T20:37:25.034Z,66.50
2023-03-02T20:39:55.150Z,66.30
2023-03-02T20:42:26.857Z,66.20
2023-03-02T20:44:58.082Z,66.00
2023-03-02T20:47:30.006Z,65.90
2023-03-02T20:50:00.641Z,65.80
2023-03-02T20:52:31.512Z,65.80
2023-03-02T20:55:03.754Z,65.90
2023-03-02T20:57:33.286Z,66.00
2023-03-02T21:00:03.568Z,65.90
2023-03-02T21:02:33.402Z,65.80
2023-03-02T21:05:03.484Z,65.70
2023-03-02T21:07:36.389Z,65.50
2023-03-02T21:10:08.534Z,65.40
2023-03-02T21:12:37.798Z,65.40
2023-03-02T21:15:09.170Z,65.40
2023-03-02T21:17:40.575Z,65.20
2023-03-02T21:20:09.821Z,65.10
2023-03-02T21:22:39.444Z,65.00
2023-03-02T21:25:09.734Z,64.90
2023-03-02T21:27:40.701Z,64.90
2023-03-02T21:30:12.271Z,64.80
2023-03-02T21:32:46.279Z,64.70
2023-03-02T21:35:18.607Z,64.60
2023-03-02T21:37:49.634Z,64.50
2023-03-02T21:40:26.200Z,64.40
2023-03-02T21:42:57.044Z,64.40
2023-03-02T21:45:25.716Z,64.20
2023-03-02T21:47:55.909Z,64.20
2023-03-02T21:50:28.231Z,64.30
2023-03-02T21:52:59.985Z,64.40
2023-03-02T21:55:30.132Z,64.30
2023-03-02T21:58:00.097Z,64.10
2023-03-02T22:00:36.777Z,63.90
2023-03-02T22:03:06.730Z,63.70
2023-03-02T22:05:35.124Z,63.80
2023-03-02T22:08:03.411Z,63.90
2023-03-02T22:10:39.487Z,64.00
2023-03-02T22:13:21.680Z,64.00
2023-03-02T22:15:51.428Z,63.70
2023-03-02T22:18:21.933Z,63.60
2023-03-02T22:20:52.112Z,63.70
2023-03-02T22:23:23.835Z,64.10
2023-03-02T22:25:54.036Z,64.20
2023-03-02T22:28:25.031Z,64.10
2023-03-02T22:30:58.933Z,64.10
2023-03-02T22:33:29.785Z,64.20
2023-03-02T22:36:12.113Z,64.00
2023-03-02T22:38:40.266Z,64.00
2023-03-02T22:41:15.642Z,64.20
2023-03-02T22:43:44.287Z,64.30
2023-03-02T22:46:22.175Z,64.10
2023-03-02T22:48:54.592Z,64.00
2023-03-02T22:51:24.852Z,64.20
2023-03-02T22:53:56.354Z,64.30
2023-03-02T22:56:34.477Z,64.10
2023-03-02T22:59:29.769Z,64.00
2023-03-02T23:02:03.672Z,64.20
2023-03-02T23:04:36.390Z,64.10
2023-03-02T23:07:18.883Z,64.20
2023-03-02T23:09:47.872Z,64.20
2023-03-02T23:12:23.365Z,64.10
2023-03-02T23:14:54.805Z,64.10
2023-03-02T23:17:33.316Z,64.00
2023-03-02T23:20:02.911Z,63.90
2023-03-02T23:22:31.851Z,64.00
2023-03-02T23:25:00.224Z,64.00
2023-03-02T23:27:28.856Z,63.90
2023-03-02T23:29:56.924Z,63.80
2023-03-02T23:32:25.435Z,63.60
2023-03-02T23:34:53.533Z,63.70
2023-03-02T23:37:21.318Z,63.90
2023-03-02T23:39:49.575Z,64.00
2023-03-02T23:42:18.663Z,63.90
2023-03-02T23:44:46.803Z,63.90
2023-03-02T23:47:14.648Z,64.00
2023-03-02T23:49:43.570Z,64.10
2023-03-02T23:52:12.422Z,64.10
2023-03-02T23:54:42.078Z,64.00
2023-03-02T23:57:09.890Z,63.90
2023-03-02T23:59:38.638Z,63.80
